Quesnel Airport
CYQZ : now visible

Airfield :











YOU CAN JOIN US ON...

 
LOGIN :

Register | Disclaimer

   EN    FR    IT 

 









Legend :    VFR   Marginal VFR   IFR   Intensive IFR   Very Intensive IFR
Visi :
Ceiling :
>= 8 km
>= 3000ft
5 to 8 km
1000 to 3000 ft
1500m to 5 km
500 to 1000 ft
800 to 1500m
200 to 500 ft
< 800m
< 200 ft
Symbols :   Thunderstorms  Fog  Heavy snow  Heavy precipitations  Wind > 20 kt






- Airport Elevation : 1789 ft
- IATA code : YQZ


CYQZ - Quesnel

CURRENT METAR :
  • 031400Z AUTO 10003KT 1SM BR OVC003 14/14 A3002 RMK SLP171 DENSITY ALT 1900FT

EXPIRED METARs :
  • 031321Z AUTO 00000KT 2 1/2SM BR OVC003 14/14 A3002 RMK SLP168 DENSITY ALT 1900FT
  • 031300Z AUTO VRB02KT 5SM BR OVC003 14/14 A3002 RMK SLP167 DENSITY ALT 1900FT
  • 031243Z AUTO VRB02KT 3SM BR OVC003 14/14 A3001 RMK SLP163 DENSITY ALT 1900FT
  • 031211Z AUTO VRB02KT 3/4SM BR OVC003 14/14 A3001 RMK SLP162 DENSITY ALT 2000FT
  • 031104Z AUTO 04004KT 9SM BKN003 BKN085 BKN160 14/14 A2999 RMK SLP158 DENSITY ALT 1900FT

TAF AMD TAF CYQZ
Valid from the 03 at 12:00 until the 04 at 00:00 UTC


031241Z 0312/0324 VRB03KT P6SM FEW003 BKN080
TEMPO 0312/0316 1SM BR OVC003
FM031600 VRB03KT P6SM FEW040 BKN080
TEMPO 0316/0324 P6SM -SHRA BKN040 RMK FCST BASED ON AUTO OBS. NXT FCST BY 031900Z
CZVR FIR / North America



MET'MAP, your aeronautical weather chart ! - Copyright ORBIFLY December 2007 - Disclaimer

ORBIFLY MET'MAP TEAM :

Programming & Development : Alexandra Zaïnal
Concept & original design : Baudouin d'Aumeries
Assistance for programming : Marc-Olivier Méhu
Technical & hardware support : Manuel Goepfert

Contact : metmap@orbifly.com




SOURCES & CREDITS :

   NOAA       Earth
Advisory